Weather at Dallas Fort Worth International Airport

Public forecast

Using degrees Fahrenheit for public forecast. Weather courtesy of forecast.io.

Current aviation weather report (METAR) for Dallas Fort Worth International Airport

Retrieved 2020/11/28 18:53 UTC (45 minutes ago):

KDFW 281853Z 06013KT 10SM BKN042 BKN150 BKN250 15/07 A3008 RMK AO2 SLP184 T01500072

Aviation forecast (TAF) for Dallas Fort Worth International Airport

Retrieved 2020/11/28 18:24 UTC (1 hour ago):

TAF KDFW 281723Z 2818/2924 05012KT P6SM VCSH SCT040 BKN140 FM282000 03010KT 6SM -RA OVC025 FM290200 35008KT 5SM RA OVC015 FM290500 35006KT 3SM RA OVC007 FM291200 34006KT P6SM OVC015 FM291800 33015KT P6SM OVC025 FM292100 34017KT P6SM BKN050